Lostwood, North Dakota
Current Conditions -  °F | °C
As of 1:55 AM on Saturday 20 Dec 2014 (Local Time) from K08D Reporting Station
Moderate Fog Moderate Fog  
Wind Chill: 14°   Ceiling: 200
Heat Index: 14°   Visibility: 0.25mi
Dew Point: 14°   Wind: 0mph
Humidity: 100%   Direction: NA
Pressure: 29.87"   Gusts: NA
Location:  48.3212°N, 102.393°W
Report Text: K08D 200755Z AUTO 00000KT 1/4SM FZFG OVC002 M10/M10 A2987 RMK AO2
Loading
Personal Weather Stations






























Interactive Weather Map New forecast layout! Learn more

10-Day Weather Forecast

Advertisements
Track Severe Weather on mobile